Time;durP1;ratioP1;P1;durP2;ratioP2;P2;SDS_P1;SDS_P2;PMS_P1;PMS_P2;Temp;Humidity;BMP_temperature;BMP_pressure;BME280_temperature;BME280_humidity;BME280_pressure;Samples;Min_cycle;Max_cycle;Signal;HPM_P1;HPM_P2
2023/11/17 00:01:43;;;;;;;;;;;;;;;17.62;51.05;99499.94;10328785;28;826;-70
2023/11/17 00:06:39;;;;;;;;;;;;;;;17.63;50.84;99500.81;10328618;28;750;-70
2023/11/17 00:11:35;;;;;;;;;;;;;;;17.61;50.89;99503.53;10328306;28;1889;-70
2023/11/17 00:16:30;;;;;;;;;;;;;;;17.58;51.21;99522.13;10328894;28;786;-70
2023/11/17 00:21:26;;;;;;;;;;;;;;;17.56;50.96;99525.75;10328758;28;1005;-70
2023/11/17 00:26:22;;;;;;;;;;;;;;;17.60;51.01;99541.34;10328814;28;831;-70
2023/11/17 00:31:18;;;;;;;;;;;;;;;17.58;50.96;99547.59;10328353;28;1967;-70
2023/11/17 00:36:15;;;;;;;;;;;;;;;17.55;51.00;99560.91;10328383;28;814;-71
2023/11/17 00:41:12;;;;;;;;;;;;;;;17.52;51.05;99573.31;10327318;28;848;-70
2023/11/17 00:46:08;;;;;;;;;;;;;;;17.55;50.90;99574.09;10326918;28;885;-70
2023/11/17 00:51:04;;;;;;;;;;;;;;;17.54;51.07;99583.78;10327114;28;1894;-70
2023/11/17 00:56:01;;;;;;;;;;;;;;;17.52;50.96;99586.47;10326997;28;968;-70
2023/11/17 01:00:57;;;;;;;;;;;;;;;17.50;50.97;99595.38;10326461;28;876;-70
2023/11/17 01:05:53;;;;;;;;;;;;;;;17.50;50.93;99605.91;10325674;28;1272;-70
2023/11/17 01:10:50;;;;;;;;;;;;;;;17.51;50.86;99618.19;10326492;28;1910;-70
2023/11/17 01:15:46;;;;;;;;;;;;;;;17.49;50.91;99615.59;10325954;28;850;-70
2023/11/17 01:20:41;;;;;;;;;;;;;;;17.49;50.92;99627.94;10326469;28;878;-70
2023/11/17 01:25:37;;;;;;;;;;;;;;;17.47;50.94;99627.13;10325797;28;874;-69
2023/11/17 01:30:33;;;;;;;;;;;;;;;17.47;50.89;99621.88;10325503;28;1914;-70
2023/11/17 01:35:29;;;;;;;;;;;;;;;17.48;51.07;99627.09;10325505;28;872;-70
2023/11/17 01:40:27;;;;;;;;;;;;;;;17.46;50.97;99625.44;10325429;28;818;-70
2023/11/17 01:45:23;;;;;;;;;;;;;;;17.44;50.84;99633.41;10324064;28;1287;-70
2023/11/17 01:50:19;;;;;;;;;;;;;;;17.44;50.79;99638.66;10325730;28;1890;-70
2023/11/17 01:55:16;;;;;;;;;;;;;;;17.46;50.89;99642.09;10325435;28;855;-70
2023/11/17 02:00:15;;;;;;;;;;;;;;;17.45;50.95;99644.81;10325848;28;790;-70
2023/11/17 02:05:11;;;;;;;;;;;;;;;17.41;51.05;99653.75;10325574;28;913;-70
2023/11/17 02:10:07;;;;;;;;;;;;;;;17.41;50.92;99646.72;10329464;28;1902;-70
2023/11/17 02:15:09;;;;;;;;;;;;;;;17.43;50.92;99654.56;10333531;28;831;-70
2023/11/17 02:20:19;;;;;;;;;;;;;;;17.42;51.02;99664.25;10333437;28;908;-70
2023/11/17 02:25:15;;;;;;;;;;;;;;;17.40;50.89;99681.91;10332090;28;819;-70
2023/11/17 02:30:11;;;;;;;;;;;;;;;17.39;50.86;99692.50;10332072;28;1910;-70
2023/11/17 02:35:08;;;;;;;;;;;;;;;17.40;50.96;99700.34;10332099;28;827;-69
2023/11/17 02:40:18;;;;;;;;;;;;;;;17.40;50.90;99702.13;10331914;28;802;-70
2023/11/17 02:45:19;;;;;;;;;;;;;;;17.38;50.86;99707.44;10332443;28;861;-70
2023/11/17 02:50:18;;;;;;;;;;;;;;;17.36;50.83;99709.28;10331549;28;1897;-70
2023/11/17 02:55:14;;;;;;;;;;;;;;;17.36;51.00;99719.81;10331258;28;1106;-69
2023/11/17 03:00:10;;;;;;;;;;;;;;;17.38;50.85;99714.50;10330585;28;1024;-70
2023/11/17 03:05:06;;;;;;;;;;;;;;;17.34;51.09;99721.66;10331627;28;760;-70
2023/11/17 03:10:02;;;;;;;;;;;;;;;17.34;51.07;99723.44;10331319;28;1902;-70
2023/11/17 03:14:58;;;;;;;;;;;;;;;17.33;51.12;99729.63;10331308;28;890;-70
2023/11/17 03:19:54;;;;;;;;;;;;;;;17.33;50.84;99729.63;10329526;28;878;-70
2023/11/17 03:24:50;;;;;;;;;;;;;;;17.33;50.92;99729.63;10331237;28;876;-70
2023/11/17 03:29:46;;;;;;;;;;;;;;;17.31;51.17;99733.19;10330012;28;1985;-70
2023/11/17 03:34:42;;;;;;;;;;;;;;;17.29;51.15;99737.69;10330530;28;848;-70
2023/11/17 03:39:41;;;;;;;;;;;;;;;17.29;51.00;99739.44;10330310;28;903;-70
2023/11/17 03:44:37;;;;;;;;;;;;;;;17.28;51.14;99743.84;10329704;28;852;-70
2023/11/17 03:49:33;;;;;;;;;;;;;;;17.27;51.04;99750.03;10329335;28;1947;-70
2023/11/17 03:54:28;;;;;;;;;;;;;;;17.25;50.97;99751.88;10329181;28;810;-70
2023/11/17 03:59:24;;;;;;;;;;;;;;;17.24;51.17;99758.09;10328969;28;897;-70
2023/11/17 04:04:20;;;;;;;;;;;;;;;17.25;51.13;99759.78;10328726;28;968;-70
2023/11/17 04:09:20;;;;;;;;;;;;;;;17.25;51.15;99759.78;10328102;28;1055;-70
2023/11/17 04:14:16;;;;;;;;;;;;;;;17.24;51.11;99768.63;10327718;28;891;-70
2023/11/17 04:19:14;;;;;;;;;;;;;;;17.23;51.02;99766.88;10328732;28;864;-71
2023/11/17 04:24:09;;;;;;;;;;;;;;;17.27;50.86;99760.59;10328075;28;871;-70
2023/11/17 04:29:05;;;;;;;;;;;;;;;17.26;50.99;99756.22;10327419;28;1278;-71
2023/11/17 04:34:01;;;;;;;;;;;;;;;17.26;50.82;99765.91;10327366;28;1910;-70
2023/11/17 04:38:58;;;;;;;;;;;;;;;17.30;50.71;99765.72;10327927;28;782;-70
2023/11/17 04:43:54;;;;;;;;;;;;;;;17.36;50.51;99766.38;10327072;28;881;-70
2023/11/17 04:48:50;;;;;;;;;;;;;;;17.36;50.68;99764.59;10326958;28;880;-70
2023/11/17 04:53:46;;;;;;;;;;;;;;;17.40;50.37;99768.00;10326706;28;1897;-71
2023/11/17 04:58:42;;;;;;;;;;;;;;;17.43;50.53;99773.13;10326610;28;862;-69
2023/11/17 05:03:40;;;;;;;;;;;;;;;17.40;50.56;99778.53;10326665;28;948;-70
2023/11/17 05:08:36;;;;;;;;;;;;;;;17.44;50.33;99769.56;10326302;28;925;-70
2023/11/17 05:13:33;;;;;;;;;;;;;;;17.47;50.38;99782.59;10326077;28;1886;-70
2023/11/17 05:18:28;;;;;;;;;;;;;;;17.49;50.17;99788.69;10325974;28;865;-70
2023/11/17 05:23:24;;;;;;;;;;;;;;;17.52;50.25;99794.66;10325278;28;881;-70
2023/11/17 05:28:20;;;;;;;;;;;;;;;17.51;50.27;99784.22;10325776;28;1054;-70
2023/11/17 05:33:18;;;;;;;;;;;;;;;17.53;50.24;99785.84;10327115;28;1910;-70
2023/11/17 05:38:13;;;;;;;;;;;;;;;17.58;50.18;99788.31;10325570;28;873;-71
2023/11/17 05:43:09;;;;;;;;;;;;;;;17.60;50.01;99801.41;10324952;28;854;-72
2023/11/17 05:48:06;;;;;;;;;;;;;;;17.60;50.06;99804.88;10324872;28;1159;-71
2023/11/17 05:53:01;;;;;;;;;;;;;;;17.66;49.84;99809.94;10325201;28;1910;-71
2023/11/17 05:57:57;;;;;;;;;;;;;;;17.66;50.11;99809.94;10325902;28;834;-70
2023/11/17 06:02:53;;;;;;;;;;;;;;;17.68;49.93;99810.72;10325048;28;826;-71
2023/11/17 06:07:49;;;;;;;;;;;;;;;17.69;50.01;99809.78;10325778;28;845;-70
2023/11/17 06:12:45;;;;;;;;;;;;;;;17.69;50.00;99806.31;10324774;28;1897;-70
2023/11/17 06:17:41;;;;;;;;;;;;;;;17.72;50.11;99822.00;10324897;28;799;-71
2023/11/17 06:22:37;;;;;;;;;;;;;;;17.72;50.14;99814.94;10324817;28;913;-71
2023/11/17 06:27:33;;;;;;;;;;;;;;;17.67;50.47;99821.31;10325106;28;811;-70
2023/11/17 06:32:29;;;;;;;;;;;;;;;17.65;50.58;99824.00;10325038;28;1906;-71
2023/11/17 06:37:25;;;;;;;;;;;;;;;17.70;50.55;99827.31;10324522;28;1056;-71
2023/11/17 06:42:22;;;;;;;;;;;;;;;17.74;50.33;99830.69;10324313;28;869;-71
2023/11/17 06:47:18;;;;;;;;;;;;;;;17.72;50.46;99822.84;10324832;28;803;-71
2023/11/17 06:52:14;;;;;;;;;;;;;;;17.72;50.43;99836.03;10324019;28;1894;-71
2023/11/17 06:57:10;;;;;;;;;;;;;;;17.69;50.42;99832.66;10324588;28;1171;-71
2023/11/17 07:02:07;;;;;;;;;;;;;;;17.70;50.34;99840.50;10330092;28;1683;-71
2023/11/17 07:07:04;;;;;;;;;;;;;;;17.70;50.52;99848.41;10330537;28;887;-71
2023/11/17 07:12:02;;;;;;;;;;;;;;;17.65;50.52;99858.28;10330471;28;1902;-71
2023/11/17 07:16:58;;;;;;;;;;;;;;;17.58;50.78;99850.69;10330868;28;873;-72
2023/11/17 07:21:55;;;;;;;;;;;;;;;17.52;50.65;99851.78;10330544;28;1016;-70
2023/11/17 07:26:51;;;;;;;;;;;;;;;17.47;50.56;99859.03;10325626;28;1870;-71
2023/11/17 07:31:48;;;;;;;;;;;;;;;17.44;50.61;99860.00;10325293;28;1979;-68
2023/11/17 07:36:44;;;;;;;;;;;;;;;17.40;50.73;99870.75;10289389;28;940;-68
2023/11/17 07:41:40;;;;;;;;;;;;;;;17.46;50.52;99867.88;10288981;28;798;-68
2023/11/17 07:46:36;;;;;;;;;;;;;;;17.40;50.33;99878.66;10293213;28;1703;-68
2023/11/17 07:51:33;;;;;;;;;;;;;;;17.39;50.46;99880.41;10288337;28;1953;-68
2023/11/17 07:56:29;;;;;;;;;;;;;;;17.42;50.28;99882.06;10247511;28;783;-68
2023/11/17 08:01:25;;;;;;;;;;;;;;;17.48;50.15;99889.75;10247592;28;866;-69
2023/11/17 08:06:21;;;;;;;;;;;;;;;17.47;49.79;99894.13;10246860;28;875;-68
2023/11/17 08:11:17;;;;;;;;;;;;;;;17.51;49.81;99903.66;10247002;28;1960;-68
2023/11/17 08:16:13;;;;;;;;;;;;;;;17.51;49.70;99910.69;10247545;28;858;-70
2023/11/17 08:21:09;;;;;;;;;;;;;;;17.63;49.43;99917.25;10263275;28;756;-70
2023/11/17 08:26:05;;;;;;;;;;;;;;;17.65;49.64;99912.78;10246390;28;801;-70
2023/11/17 08:31:04;;;;;;;;;;;;;;;17.69;49.52;99919.66;10246021;28;2027;-70
2023/11/17 08:36:00;;;;;;;;;;;;;;;17.73;49.58;99916.81;10246074;28;946;-70
2023/11/17 08:40:56;;;;;;;;;;;;;;;17.71;49.79;99912.53;10245750;28;934;-70
2023/11/17 08:45:52;;;;;;;;;;;;;;;17.69;49.53;99909.97;10244999;28;772;-70
2023/11/17 08:50:48;;;;;;;;;;;;;;;17.73;49.53;99919.44;10245083;28;1902;-70
2023/11/17 08:55:44;;;;;;;;;;;;;;;17.77;49.68;99927.25;10246001;28;933;-71
2023/11/17 09:00:40;;;;;;;;;;;;;;;17.75;49.69;99925.53;10324833;28;1034;-70
2023/11/17 09:05:36;;;;;;;;;;;;;;;17.80;49.83;99932.44;10326158;28;977;-71
2023/11/17 09:10:32;;;;;;;;;;;;;;;17.78;50.00;99934.25;10325871;28;1902;-69
2023/11/17 09:15:28;;;;;;;;;;;;;;;17.77;49.92;99940.44;10325688;28;866;-70
2023/11/17 09:20:24;;;;;;;;;;;;;;;17.82;49.77;99933.25;10325659;28;884;-70
2023/11/17 09:25:22;;;;;;;;;;;;;;;17.86;49.75;99946.22;10325673;28;882;-71
2023/11/17 09:30:19;;;;;;;;;;;;;;;17.83;49.83;99956.03;10325533;28;1984;-70
2023/11/17 09:35:18;;;;;;;;;;;;;;;17.87;49.85;99962.94;10325462;28;877;-69
2023/11/17 09:40:18;;;;;;;;;;;;;;;17.87;49.89;99955.00;10324668;28;1243;-71
2023/11/17 09:45:16;;;;;;;;;;;;;;;17.86;49.97;99958.56;10325201;28;853;-71
2023/11/17 09:50:13;;;;;;;;;;;;;;;17.87;49.88;99963.78;10325196;28;1969;-70
2023/11/17 09:55:10;;;;;;;;;;;;;;;17.88;50.09;99962.00;10325186;28;833;-70
2023/11/17 10:00:17;;;;;;;;;;;;;;;17.85;49.96;99962.97;10325035;28;973;-70
2023/11/17 10:05:13;;;;;;;;;;;;;;;17.87;49.72;99961.16;10325073;28;960;-71
2023/11/17 10:10:14;;;;;;;;;;;;;;;17.88;49.98;99962.84;10324923;28;1941;-71
2023/11/17 10:15:12;;;;;;;;;;;;;;;17.86;49.79;99967.31;10324923;28;842;-70
2023/11/17 10:20:12;;;;;;;;;;;;;;;17.82;49.88;99962.25;10325341;28;857;-71
2023/11/17 10:25:10;;;;;;;;;;;;;;;17.87;49.78;99962.94;10324783;28;786;-70
2023/11/17 10:30:07;;;;;;;;;;;;;;;17.84;49.70;99961.28;10326370;28;1978;-70
2023/11/17 10:35:03;;;;;;;;;;;;;;;17.87;49.76;99969.06;10332884;28;821;-70
2023/11/17 10:39:59;;;;;;;;;;;;;;;17.90;49.61;99970.72;10332628;28;946;-70
2023/11/17 10:44:55;;;;;;;;;;;;;;;17.88;49.75;99969.91;10332478;28;1035;-70
2023/11/17 10:49:51;;;;;;;;;;;;;;;17.91;49.76;99980.31;10332230;28;1897;-70
2023/11/17 10:54:47;;;;;;;;;;;;;;;17.90;49.71;99982.13;10332080;28;893;-70
2023/11/17 10:59:43;;;;;;;;;;;;;;;17.89;49.61;99987.44;10331306;28;921;-70
2023/11/17 11:04:39;;;;;;;;;;;;;;;17.90;49.64;99984.75;10331144;28;884;-70
2023/11/17 11:09:38;;;;;;;;;;;;;;;17.90;49.79;99974.19;10331533;28;2049;-70
2023/11/17 11:14:33;;;;;;;;;;;;;;;17.88;49.77;99978.66;10331889;28;894;-70
2023/11/17 11:19:31;;;;;;;;;;;;;;;17.88;49.80;99985.72;10330784;28;902;-70
2023/11/17 11:24:26;;;;;;;;;;;;;;;17.89;49.77;99979.53;10330786;28;842;-70
2023/11/17 11:29:22;;;;;;;;;;;;;;;17.90;49.58;99992.66;10330243;28;1371;-70
2023/11/17 11:34:18;;;;;;;;;;;;;;;17.91;49.67;99986.44;10330659;28;1910;-70
2023/11/17 11:39:14;;;;;;;;;;;;;;;17.90;49.86;99987.38;10330427;28;963;-69
2023/11/17 11:44:10;;;;;;;;;;;;;;;17.81;50.04;99989.50;10328929;28;954;-71
2023/11/17 11:49:06;;;;;;;;;;;;;;;17.88;49.91;99988.38;10330111;28;988;-71
2023/11/17 11:54:02;;;;;;;;;;;;;;;17.94;49.56;99991.59;10329168;28;1957;-69
2023/11/17 11:58:58;;;;;;;;;;;;;;;17.91;49.69;99991.72;10329097;28;1584;-70
2023/11/17 12:03:54;;;;;;;;;;;;;;;17.94;49.81;99998.66;10328908;28;750;-70
2023/11/17 12:08:51;;;;;;;;;;;;;;;17.95;49.71;99998.59;10328790;28;949;-71
2023/11/17 12:13:47;;;;;;;;;;;;;;;17.97;49.86;100009.06;10328407;28;1874;-71
2023/11/17 12:18:48;;;;;;;;;;;;;;;17.96;49.69;100015.28;10328282;28;794;-71
2023/11/17 12:23:45;;;;;;;;;;;;;;;18.02;49.77;100008.91;10328011;28;846;-71
2023/11/17 12:28:43;;;;;;;;;;;;;;;18.14;49.72;100019.81;10327665;28;1101;-71
2023/11/17 12:33:39;;;;;;;;;;;;;;;18.13;49.74;100018.13;10328465;28;1910;-72
2023/11/17 12:38:35;;;;;;;;;;;;;;;18.22;49.48;100018.66;10328662;28;917;-72
2023/11/17 12:43:31;;;;;;;;;;;;;;;18.14;49.93;100032.16;10328301;28;798;-71
2023/11/17 12:48:27;;;;;;;;;;;;;;;18.09;49.92;100026.22;10327020;28;928;-71
2023/11/17 12:53:23;;;;;;;;;;;;;;;18.11;50.32;100030.50;10327382;28;1951;-70
2023/11/17 12:58:21;;;;;;;;;;;;;;;18.11;49.90;100025.22;10327333;28;854;-70
2023/11/17 13:03:17;;;;;;;;;;;;;;;18.17;49.95;100032.03;10327126;28;886;-72
2023/11/17 13:08:13;;;;;;;;;;;;;;;18.17;49.81;100030.25;10326415;28;856;-72
2023/11/17 13:13:09;;;;;;;;;;;;;;;18.32;49.25;100044.59;10326759;28;1890;-72
2023/11/17 13:18:08;;;;;;;;;;;;;;;18.33;49.21;100040.19;10326553;28;848;-72
2023/11/17 13:23:04;;;;;;;;;;;;;;;18.42;49.11;100042.47;10326534;28;868;-72
2023/11/17 13:28:04;;;;;;;;;;;;;;;18.43;48.87;100059.16;10327069;28;915;-71
2023/11/17 13:33:03;;;;;;;;;;;;;;;18.36;49.16;100056.75;10326703;28;1910;-72
2023/11/17 13:37:59;;;;;;;;;;;;;;;18.32;49.23;100055.16;10322959;28;1034;-72
2023/11/17 13:42:56;;;;;;;;;;;;;;;18.23;49.31;100068.72;10325016;28;1173;-72
2023/11/17 13:47:52;;;;;;;;;;;;;;;18.15;49.31;100062.88;10325279;28;960;-72
2023/11/17 13:52:49;;;;;;;;;;;;;;;18.13;49.30;100073.53;10325021;28;1917;-72
2023/11/17 13:57:45;;;;;;;;;;;;;;;18.12;49.53;100076.19;10325067;28;874;-73
2023/11/17 14:02:41;;;;;;;;;;;;;;;18.12;49.36;100084.97;10324630;28;1000;-71
2023/11/17 14:07:37;;;;;;;;;;;;;;;18.18;49.26;100084.75;10331839;28;890;-71
2023/11/17 14:12:35;;;;;;;;;;;;;;;18.23;48.98;100091.59;10332996;28;1973;-70
2023/11/17 14:17:34;;;;;;;;;;;;;;;18.20;49.04;100094.38;10333022;28;858;-71
2023/11/17 14:22:29;;;;;;;;;;;;;;;18.24;49.16;100109.19;10332612;28;914;-71
2023/11/17 14:27:25;;;;;;;;;;;;;;;18.26;48.96;100113.47;10332238;28;858;-71
2023/11/17 14:32:21;;;;;;;;;;;;;;;18.33;48.61;100109.66;10333254;28;1983;-70
2023/11/17 14:37:18;;;;;;;;;;;;;;;18.34;48.74;100114.03;10332781;28;1521;-71
2023/11/17 14:42:14;;;;;;;;;;;;;;;18.31;49.04;100123.81;10332642;28;791;-71
2023/11/17 14:47:10;;;;;;;;;;;;;;;18.27;49.00;100124.88;10327848;28;1267;-70
2023/11/17 14:52:06;;;;;;;;;;;;;;;18.15;49.23;100121.78;10331785;28;1897;-71
2023/11/17 14:57:01;;;;;;;;;;;;;;;18.04;49.62;100126.63;10331329;28;856;-71
2023/11/17 15:01:57;;;;;;;;;;;;;;;17.98;49.70;100121.59;10330875;28;783;-71
2023/11/17 15:06:53;;;;;;;;;;;;;;;18.00;49.72;100121.50;10330956;28;845;-69
2023/11/17 15:11:53;;;;;;;;;;;;;;;17.89;49.96;100135.09;10330959;28;1894;-70
2023/11/17 15:16:52;;;;;;;;;;;;;;;17.86;49.79;100144.00;10329316;28;980;-69
2023/11/17 15:21:48;;;;;;;;;;;;;;;17.87;49.79;100143.09;10330120;28;841;-70
2023/11/17 15:26:44;;;;;;;;;;;;;;;17.86;49.89;100157.19;10330235;28;865;-72
2023/11/17 15:31:40;;;;;;;;;;;;;;;17.88;49.70;100157.13;10329855;28;1987;-69
2023/11/17 15:36:36;;;;;;;;;;;;;;;17.88;49.77;100154.50;10330215;28;842;-69
2023/11/17 15:41:34;;;;;;;;;;;;;;;17.85;49.97;100152.84;10328971;28;921;-69
2023/11/17 15:46:34;;;;;;;;;;;;;;;17.88;49.74;100171.19;10329214;28;902;-70
2023/11/17 15:51:30;;;;;;;;;;;;;;;17.86;49.64;100173.00;10329020;28;1997;-70
2023/11/17 15:56:25;;;;;;;;;;;;;;;17.84;49.86;100180.13;10328808;28;890;-70
2023/11/17 16:01:24;;;;;;;;;;;;;;;17.87;49.55;100184.44;10328868;28;1032;-70
2023/11/17 16:06:19;;;;;;;;;;;;;;;17.95;49.31;100199.06;10329228;28;861;-71
2023/11/17 16:11:19;;;;;;;;;;;;;;;17.97;49.37;100204.25;10328320;28;1921;-70
2023/11/17 16:16:18;;;;;;;;;;;;;;;17.99;49.36;100209.47;10328586;28;842;-71
2023/11/17 16:21:17;;;;;;;;;;;;;;;18.03;49.31;100221.66;10327898;28;873;-71
2023/11/17 16:26:14;;;;;;;;;;;;;;;17.98;49.59;100213.91;10328216;28;791;-71
2023/11/17 16:31:10;;;;;;;;;;;;;;;18.01;49.49;100218.22;10327471;28;2059;-71
2023/11/17 16:36:06;;;;;;;;;;;;;;;18.03;49.50;100242.75;10327941;28;948;-71
2023/11/17 16:41:03;;;;;;;;;;;;;;;18.02;49.52;100247.16;10327307;28;794;-71
2023/11/17 16:45:59;;;;;;;;;;;;;;;18.00;49.60;100242.84;10326902;28;1037;-71
2023/11/17 16:50:57;;;;;;;;;;;;;;;18.04;49.46;100236.56;10326846;28;1906;-71
2023/11/17 16:55:53;;;;;;;;;;;;;;;18.03;49.45;100266.50;10326396;28;892;-71
2023/11/17 17:00:54;;;;;;;;;;;;;;;18.01;49.65;100271.81;10326634;28;924;-71
2023/11/17 17:05:50;;;;;;;;;;;;;;;18.07;49.68;100265.44;10326318;28;1720;-71
2023/11/17 17:10:46;;;;;;;;;;;;;;;18.05;49.33;100272.56;10326729;28;1965;-71
2023/11/17 17:15:42;;;;;;;;;;;;;;;18.07;49.43;100276.84;10326180;28;830;-72
2023/11/17 17:20:38;;;;;;;;;;;;;;;18.06;49.43;100277.78;10326024;28;969;-71
2023/11/17 17:25:39;;;;;;;;;;;;;;;18.06;49.59;100274.28;10325906;28;871;-71
2023/11/17 17:30:35;;;;;;;;;;;;;;;18.07;49.35;100270.72;10326538;28;2008;-71
2023/11/17 17:35:35;;;;;;;;;;;;;;;18.13;49.40;100281.06;10325680;28;988;-71
2023/11/17 17:40:36;;;;;;;;;;;;;;;18.04;49.48;100276.97;10325529;28;786;-70
2023/11/17 17:45:33;;;;;;;;;;;;;;;18.06;49.71;100293.63;10325813;28;1548;-71
2023/11/17 17:50:29;;;;;;;;;;;;;;;18.11;49.18;100289.03;10325238;28;1897;-71
2023/11/17 17:55:24;;;;;;;;;;;;;;;18.10;49.52;100295.25;10325378;28;1263;-71
2023/11/17 18:00:22;;;;;;;;;;;;;;;18.12;49.24;100305.72;10325214;28;941;-70
2023/11/17 18:05:19;;;;;;;;;;;;;;;18.17;49.21;100311.69;10325047;28;1158;-71
2023/11/17 18:10:15;;;;;;;;;;;;;;;18.11;49.33;100311.94;10325754;28;1955;-71
2023/11/17 18:15:11;;;;;;;;;;;;;;;18.13;49.30;100347.00;10324901;28;846;-70
2023/11/17 18:20:18;;;;;;;;;;;;;;;18.14;49.38;100333.78;10324733;28;906;-71
2023/11/17 18:25:15;;;;;;;;;;;;;;;18.14;49.18;100336.41;10325254;28;909;-71
2023/11/17 18:30:11;;;;;;;;;;;;;;;18.17;49.09;100327.53;10324094;28;2021;-70
2023/11/17 18:35:11;;;;;;;;;;;;;;;18.15;49.23;100327.56;10324520;28;853;-71
2023/11/17 18:40:10;;;;;;;;;;;;;;;18.14;49.18;100332.91;10324964;28;932;-71
2023/11/17 18:45:06;;;;;;;;;;;;;;;18.16;49.21;100345.13;10324955;28;958;-70
2023/11/17 18:50:02;;;;;;;;;;;;;;;18.21;48.98;100347.63;10325480;28;1898;-71
2023/11/17 18:54:58;;;;;;;;;;;;;;;18.18;49.06;100356.50;10331394;28;1317;-70
2023/11/17 18:59:55;;;;;;;;;;;;;;;18.17;49.13;100349.50;10331492;28;782;-70
2023/11/17 19:04:52;;;;;;;;;;;;;;;18.22;48.95;100362.53;10331810;28;950;-71
2023/11/17 19:09:48;;;;;;;;;;;;;;;18.23;49.04;100376.56;10330492;28;909;-70
2023/11/17 19:14:44;;;;;;;;;;;;;;;18.21;49.12;100378.41;10330873;28;1897;-70
2023/11/17 19:19:40;;;;;;;;;;;;;;;18.22;49.03;100381.00;10331305;28;861;-70
2023/11/17 19:24:37;;;;;;;;;;;;;;;18.23;49.03;100381.84;10330562;28;861;-70
2023/11/17 19:29:33;;;;;;;;;;;;;;;18.23;49.10;100402.97;10330507;28;1250;-71
2023/11/17 19:34:29;;;;;;;;;;;;;;;18.25;48.95;100412.56;10330034;28;1902;-71
2023/11/17 19:39:26;;;;;;;;;;;;;;;18.23;49.02;100419.66;10330669;28;984;-71
2023/11/17 19:44:22;;;;;;;;;;;;;;;18.25;49.09;100415.19;10329774;28;969;-70
2023/11/17 19:49:19;;;;;;;;;;;;;;;18.25;49.03;100415.19;10329578;28;878;-70
2023/11/17 19:54:15;;;;;;;;;;;;;;;18.27;49.07;100415.16;10329927;28;1902;-71
2023/11/17 19:59:13;;;;;;;;;;;;;;;18.20;49.15;100411.00;10329380;28;959;-77
2023/11/17 20:04:12;;;;;;;;;;;;;;;18.15;49.04;100422.56;10328256;28;922;-71
2023/11/17 20:09:17;;;;;;;;;;;;;;;18.19;48.99;100418.06;10328929;28;827;-70
2023/11/17 20:14:13;;;;;;;;;;;;;;;18.24;48.91;100410.00;10329815;28;1961;-71
2023/11/17 20:19:09;;;;;;;;;;;;;;;18.24;48.87;100413.47;10328606;28;931;-70
2023/11/17 20:24:06;;;;;;;;;;;;;;;18.25;48.86;100423.09;10328822;28;807;-71
2023/11/17 20:29:02;;;;;;;;;;;;;;;18.20;49.04;100422.41;10328187;28;1108;-70
2023/11/17 20:33:59;;;;;;;;;;;;;;;18.18;49.05;100414.56;10327243;28;1913;-71
2023/11/17 20:38:55;;;;;;;;;;;;;;;18.20;49.11;100429.47;10327586;28;970;-70
2023/11/17 20:43:53;;;;;;;;;;;;;;;18.16;49.18;100434.84;10326845;28;952;-71
2023/11/17 20:48:49;;;;;;;;;;;;;;;18.13;48.90;100439.34;10327122;28;953;-71
2023/11/17 20:53:45;;;;;;;;;;;;;;;18.11;49.19;100447.34;10327551;28;1949;-71
2023/11/17 20:58:41;;;;;;;;;;;;;;;18.09;49.12;100441.22;10326868;28;913;-71
2023/11/17 21:03:37;;;;;;;;;;;;;;;18.07;49.40;100440.41;10326142;28;976;-71
2023/11/17 21:08:33;;;;;;;;;;;;;;;18.05;49.04;100444.91;10327060;28;853;-71
2023/11/17 21:13:29;;;;;;;;;;;;;;;18.05;49.25;100436.09;10325378;28;1894;-71
2023/11/17 21:18:25;;;;;;;;;;;;;;;17.99;49.25;100434.53;10326134;28;770;-70
2023/11/17 21:23:21;;;;;;;;;;;;;;;17.99;49.36;100431.03;10326080;28;967;-70
2023/11/17 21:28:16;;;;;;;;;;;;;;;17.96;49.33;100437.28;10325996;28;960;-71
2023/11/17 21:33:12;;;;;;;;;;;;;;;17.96;49.41;100437.28;10327349;28;1977;-71
2023/11/17 21:38:09;;;;;;;;;;;;;;;17.95;49.43;100438.22;10325725;28;971;-70
2023/11/17 21:43:05;;;;;;;;;;;;;;;17.91;49.27;100440.06;10325436;28;890;-71
2023/11/17 21:48:04;;;;;;;;;;;;;;;17.86;49.69;100449.03;10326030;28;846;-71
2023/11/17 21:53:00;;;;;;;;;;;;;;;17.83;49.76;100446.50;10325263;28;1910;-71
2023/11/17 21:57:57;;;;;;;;;;;;;;;17.82;49.65;100448.28;10325291;28;882;-70
2023/11/17 22:02:53;;;;;;;;;;;;;;;17.82;49.56;100455.34;10325782;28;843;-71
2023/11/17 22:07:49;;;;;;;;;;;;;;;17.77;49.65;100462.50;10325674;28;866;-70
2023/11/17 22:12:47;;;;;;;;;;;;;;;17.73;49.57;100461.72;10324691;28;1889;-71
2023/11/17 22:17:43;;;;;;;;;;;;;;;17.69;49.89;100460.97;10325549;28;846;-70
2023/11/17 22:22:39;;;;;;;;;;;;;;;17.66;49.86;100470.75;10324846;28;784;-70
2023/11/17 22:27:35;;;;;;;;;;;;;;;17.64;49.89;100477.84;10330260;28;894;-71
2023/11/17 22:32:31;;;;;;;;;;;;;;;17.63;49.71;100481.38;10331997;28;1914;-70
2023/11/17 22:37:27;;;;;;;;;;;;;;;17.60;49.95;100482.31;10331811;28;956;-70
2023/11/17 22:42:24;;;;;;;;;;;;;;;17.58;49.97;100484.19;10332892;28;956;-71
2023/11/17 22:47:21;;;;;;;;;;;;;;;17.56;49.89;100491.25;10331439;28;909;-70
2023/11/17 22:52:18;;;;;;;;;;;;;;;17.55;49.77;100488.66;10332527;28;1955;-71
2023/11/17 22:57:14;;;;;;;;;;;;;;;17.53;49.92;100486.94;10331658;28;826;-70
2023/11/17 23:02:10;;;;;;;;;;;;;;;17.52;49.85;100495.75;10331707;28;983;-70
2023/11/17 23:07:06;;;;;;;;;;;;;;;17.50;49.89;100487.03;10331281;28;811;-70
2023/11/17 23:12:08;;;;;;;;;;;;;;;17.50;49.92;100494.94;10331027;28;1902;-70
2023/11/17 23:17:07;;;;;;;;;;;;;;;17.51;49.70;100508.97;10331662;28;842;-70
2023/11/17 23:22:02;;;;;;;;;;;;;;;17.49;49.74;100519.56;10331671;28;790;-71
2023/11/17 23:26:58;;;;;;;;;;;;;;;17.48;49.93;100519.63;10331778;28;928;-70
2023/11/17 23:31:54;;;;;;;;;;;;;;;17.48;49.90;100517.84;10329825;28;1981;-70
2023/11/17 23:36:50;;;;;;;;;;;;;;;17.48;49.58;100509.94;10329130;28;795;-70
2023/11/17 23:41:46;;;;;;;;;;;;;;;17.46;49.82;100506.47;10329907;28;770;-71
2023/11/17 23:46:42;;;;;;;;;;;;;;;17.46;49.82;100501.22;10329791;28;775;-70
2023/11/17 23:51:38;;;;;;;;;;;;;;;17.45;49.76;100514.44;10330169;28;1965;-71
2023/11/17 23:56:34;;;;;;;;;;;;;;;17.46;49.78;100510.91;10329359;28;795;-70
